sensor_id;sensor_type;location;lat;lon;timestamp;P1;durP1;ratioP1;P2;durP2;ratioP2
10092;SDS011;5085;48.092;11.484;2023-03-02T00:01:03;17.63;;;8.35;;
10092;SDS011;5085;48.092;11.484;2023-03-02T00:03:35;20.38;;;8.27;;
10092;SDS011;5085;48.092;11.484;2023-03-02T00:06:04;16.63;;;8.15;;
10092;SDS011;5085;48.092;11.484;2023-03-02T00:08:31;22.25;;;8.18;;
10092;SDS011;5085;48.092;11.484;2023-03-02T00:10:58;16.90;;;7.43;;
10092;SDS011;5085;48.092;11.484;2023-03-02T00:13:27;20.60;;;7.90;;
10092;SDS011;5085;48.092;11.484;2023-03-02T00:15:58;15.88;;;7.45;;
10092;SDS011;5085;48.092;11.484;2023-03-02T00:18:33;23.50;;;8.68;;
10092;SDS011;5085;48.092;11.484;2023-03-02T00:20:59;25.17;;;7.88;;
10092;SDS011;5085;48.092;11.484;2023-03-02T00:23:25;19.85;;;8.93;;
10092;SDS011;5085;48.092;11.484;2023-03-02T00:25:51;22.65;;;9.27;;
10092;SDS011;5085;48.092;11.484;2023-03-02T00:28:17;19.95;;;8.32;;
10092;SDS011;5085;48.092;11.484;2023-03-02T00:30:44;17.80;;;8.48;;
10092;SDS011;5085;48.092;11.484;2023-03-02T00:33:10;16.10;;;7.45;;
10092;SDS011;5085;48.092;11.484;2023-03-02T00:35:37;19.75;;;8.70;;
10092;SDS011;5085;48.092;11.484;2023-03-02T00:38:04;22.63;;;8.88;;
10092;SDS011;5085;48.092;11.484;2023-03-02T00:40:32;16.70;;;8.40;;
10092;SDS011;5085;48.092;11.484;2023-03-02T00:42:59;21.98;;;9.45;;
10092;SDS011;5085;48.092;11.484;2023-03-02T00:45:25;21.00;;;7.55;;
10092;SDS011;5085;48.092;11.484;2023-03-02T00:47:51;23.77;;;9.35;;
10092;SDS011;5085;48.092;11.484;2023-03-02T00:50:17;14.63;;;7.07;;
10092;SDS011;5085;48.092;11.484;2023-03-02T00:52:43;24.98;;;9.90;;
10092;SDS011;5085;48.092;11.484;2023-03-02T00:55:09;17.98;;;7.88;;
10092;SDS011;5085;48.092;11.484;2023-03-02T00:57:35;19.27;;;8.35;;
10092;SDS011;5085;48.092;11.484;2023-03-02T01:00:02;17.65;;;8.60;;
10092;SDS011;5085;48.092;11.484;2023-03-02T01:02:32;16.95;;;7.47;;
10092;SDS011;5085;48.092;11.484;2023-03-02T01:04:58;18.40;;;9.52;;
10092;SDS011;5085;48.092;11.484;2023-03-02T01:07:25;22.13;;;9.10;;
10092;SDS011;5085;48.092;11.484;2023-03-02T01:09:55;21.50;;;8.95;;
10092;SDS011;5085;48.092;11.484;2023-03-02T01:12:21;22.60;;;9.55;;
10092;SDS011;5085;48.092;11.484;2023-03-02T01:14:47;23.33;;;9.77;;
10092;SDS011;5085;48.092;11.484;2023-03-02T01:17:18;21.80;;;8.07;;
10092;SDS011;5085;48.092;11.484;2023-03-02T01:19:47;19.60;;;9.07;;
10092;SDS011;5085;48.092;11.484;2023-03-02T01:22:16;22.15;;;8.73;;
10092;SDS011;5085;48.092;11.484;2023-03-02T01:24:43;14.98;;;8.27;;
10092;SDS011;5085;48.092;11.484;2023-03-02T01:27:09;20.88;;;9.63;;
10092;SDS011;5085;48.092;11.484;2023-03-02T01:29:36;21.63;;;9.98;;
10092;SDS011;5085;48.092;11.484;2023-03-02T01:32:02;21.52;;;9.15;;
10092;SDS011;5085;48.092;11.484;2023-03-02T01:34:28;25.73;;;9.40;;
10092;SDS011;5085;48.092;11.484;2023-03-02T01:36:55;18.42;;;9.90;;
10092;SDS011;5085;48.092;11.484;2023-03-02T01:39:21;21.50;;;9.20;;
10092;SDS011;5085;48.092;11.484;2023-03-02T01:41:50;18.55;;;9.45;;
10092;SDS011;5085;48.092;11.484;2023-03-02T01:44:31;21.60;;;9.10;;
10092;SDS011;5085;48.092;11.484;2023-03-02T01:47:17;13.50;;;7.63;;
10092;SDS011;5085;48.092;11.484;2023-03-02T01:50:21;20.20;;;10.23;;
10092;SDS011;5085;48.092;11.484;2023-03-02T01:52:54;19.10;;;9.07;;
10092;SDS011;5085;48.092;11.484;2023-03-02T01:55:23;14.30;;;7.45;;
10092;SDS011;5085;48.092;11.484;2023-03-02T01:57:53;19.13;;;8.50;;
10092;SDS011;5085;48.092;11.484;2023-03-02T02:00:24;18.75;;;9.93;;
10092;SDS011;5085;48.092;11.484;2023-03-02T02:02:58;21.08;;;10.82;;
10092;SDS011;5085;48.092;11.484;2023-03-02T02:05:34;22.70;;;10.13;;
10092;SDS011;5085;48.092;11.484;2023-03-02T02:08:03;23.70;;;9.95;;
10092;SDS011;5085;48.092;11.484;2023-03-02T02:10:30;21.80;;;9.98;;
10092;SDS011;5085;48.092;11.484;2023-03-02T02:12:57;21.42;;;9.43;;
10092;SDS011;5085;48.092;11.484;2023-03-02T02:15:23;18.98;;;9.27;;
10092;SDS011;5085;48.092;11.484;2023-03-02T02:17:50;22.75;;;10.07;;
10092;SDS011;5085;48.092;11.484;2023-03-02T02:23:13;23.40;;;10.18;;
10092;SDS011;5085;48.092;11.484;2023-03-02T02:31:18;27.08;;;10.25;;
10092;SDS011;5085;48.092;11.484;2023-03-02T02:33:58;27.15;;;9.25;;
10092;SDS011;5085;48.092;11.484;2023-03-02T02:36:40;24.65;;;9.82;;
10092;SDS011;5085;48.092;11.484;2023-03-02T02:39:14;20.88;;;8.88;;
10092;SDS011;5085;48.092;11.484;2023-03-02T02:41:45;26.98;;;9.70;;
10092;SDS011;5085;48.092;11.484;2023-03-02T02:44:13;19.95;;;9.32;;
10092;SDS011;5085;48.092;11.484;2023-03-02T02:46:42;23.05;;;9.15;;
10092;SDS011;5085;48.092;11.484;2023-03-02T02:49:13;21.40;;;9.93;;
10092;SDS011;5085;48.092;11.484;2023-03-02T02:51:49;24.00;;;9.63;;
10092;SDS011;5085;48.092;11.484;2023-03-02T02:54:16;23.83;;;10.88;;
10092;SDS011;5085;48.092;11.484;2023-03-02T02:56:44;23.38;;;10.90;;
10092;SDS011;5085;48.092;11.484;2023-03-02T02:59:22;20.92;;;9.77;;
10092;SDS011;5085;48.092;11.484;2023-03-02T03:01:51;22.48;;;9.77;;
10092;SDS011;5085;48.092;11.484;2023-03-02T03:04:23;21.23;;;10.00;;
10092;SDS011;5085;48.092;11.484;2023-03-02T03:06:55;26.55;;;10.43;;
10092;SDS011;5085;48.092;11.484;2023-03-02T03:09:23;21.15;;;9.85;;
10092;SDS011;5085;48.092;11.484;2023-03-02T03:11:55;23.65;;;11.20;;
10092;SDS011;5085;48.092;11.484;2023-03-02T03:14:35;24.23;;;10.88;;
10092;SDS011;5085;48.092;11.484;2023-03-02T03:17:04;23.17;;;10.10;;
10092;SDS011;5085;48.092;11.484;2023-03-02T03:19:43;17.73;;;8.73;;
10092;SDS011;5085;48.092;11.484;2023-03-02T03:22:11;21.35;;;9.73;;
10092;SDS011;5085;48.092;11.484;2023-03-02T03:24:40;20.98;;;10.27;;
10092;SDS011;5085;48.092;11.484;2023-03-02T03:27:08;18.52;;;9.18;;
10092;SDS011;5085;48.092;11.484;2023-03-02T03:29:39;26.98;;;9.80;;
10092;SDS011;5085;48.092;11.484;2023-03-02T03:32:09;20.08;;;9.02;;
10092;SDS011;5085;48.092;11.484;2023-03-02T03:34:35;24.80;;;10.02;;
10092;SDS011;5085;48.092;11.484;2023-03-02T03:37:07;22.10;;;10.10;;
10092;SDS011;5085;48.092;11.484;2023-03-02T03:39:34;24.40;;;9.88;;
10092;SDS011;5085;48.092;11.484;2023-03-02T03:42:00;21.55;;;10.05;;
10092;SDS011;5085;48.092;11.484;2023-03-02T03:44:27;24.20;;;11.00;;
10092;SDS011;5085;48.092;11.484;2023-03-02T03:46:53;20.55;;;10.27;;
10092;SDS011;5085;48.092;11.484;2023-03-02T03:49:19;24.48;;;10.38;;
10092;SDS011;5085;48.092;11.484;2023-03-02T03:51:45;24.73;;;10.95;;
10092;SDS011;5085;48.092;11.484;2023-03-02T03:54:12;25.25;;;9.85;;
10092;SDS011;5085;48.092;11.484;2023-03-02T03:56:42;18.98;;;9.13;;
10092;SDS011;5085;48.092;11.484;2023-03-02T03:59:12;25.63;;;9.93;;
10092;SDS011;5085;48.092;11.484;2023-03-02T04:01:47;23.20;;;10.07;;
10092;SDS011;5085;48.092;11.484;2023-03-02T04:04:18;22.67;;;10.43;;
10092;SDS011;5085;48.092;11.484;2023-03-02T04:07:12;21.90;;;10.32;;
10092;SDS011;5085;48.092;11.484;2023-03-02T04:09:38;18.00;;;8.75;;
10092;SDS011;5085;48.092;11.484;2023-03-02T04:12:06;21.95;;;10.13;;
10092;SDS011;5085;48.092;11.484;2023-03-02T04:14:33;23.42;;;10.88;;
10092;SDS011;5085;48.092;11.484;2023-03-02T04:17:00;17.85;;;8.95;;
10092;SDS011;5085;48.092;11.484;2023-03-02T04:19:30;19.70;;;9.82;;
10092;SDS011;5085;48.092;11.484;2023-03-02T04:21:57;27.08;;;10.48;;
10092;SDS011;5085;48.092;11.484;2023-03-02T04:24:24;20.40;;;10.65;;
10092;SDS011;5085;48.092;11.484;2023-03-02T04:26:52;22.55;;;11.05;;
10092;SDS011;5085;48.092;11.484;2023-03-02T04:29:20;22.98;;;10.95;;
10092;SDS011;5085;48.092;11.484;2023-03-02T04:31:46;28.90;;;11.88;;
10092;SDS011;5085;48.092;11.484;2023-03-02T04:34:13;19.95;;;9.32;;
10092;SDS011;5085;48.092;11.484;2023-03-02T04:36:42;26.73;;;10.90;;
10092;SDS011;5085;48.092;11.484;2023-03-02T04:39:11;23.15;;;10.40;;
10092;SDS011;5085;48.092;11.484;2023-03-02T04:41:42;20.50;;;10.02;;
10092;SDS011;5085;48.092;11.484;2023-03-02T04:44:09;19.65;;;10.25;;
10092;SDS011;5085;48.092;11.484;2023-03-02T04:46:37;28.35;;;10.68;;
10092;SDS011;5085;48.092;11.484;2023-03-02T04:49:03;24.45;;;11.18;;
10092;SDS011;5085;48.092;11.484;2023-03-02T04:51:33;21.35;;;10.50;;
10092;SDS011;5085;48.092;11.484;2023-03-02T04:54:06;21.77;;;9.32;;
10092;SDS011;5085;48.092;11.484;2023-03-02T04:56:37;23.17;;;10.85;;
10092;SDS011;5085;48.092;11.484;2023-03-02T04:59:03;22.42;;;10.73;;
10092;SDS011;5085;48.092;11.484;2023-03-02T05:01:29;23.55;;;11.32;;
10092;SDS011;5085;48.092;11.484;2023-03-02T05:03:55;25.23;;;11.23;;
10092;SDS011;5085;48.092;11.484;2023-03-02T05:06:21;20.90;;;10.68;;
10092;SDS011;5085;48.092;11.484;2023-03-02T05:08:50;23.50;;;11.25;;
10092;SDS011;5085;48.092;11.484;2023-03-02T05:11:17;20.73;;;10.50;;
10092;SDS011;5085;48.092;11.484;2023-03-02T05:13:53;25.60;;;11.50;;
10092;SDS011;5085;48.092;11.484;2023-03-02T05:16:22;20.67;;;9.48;;
10092;SDS011;5085;48.092;11.484;2023-03-02T05:18:57;19.67;;;10.20;;
10092;SDS011;5085;48.092;11.484;2023-03-02T05:21:24;19.90;;;10.80;;
10092;SDS011;5085;48.092;11.484;2023-03-02T05:23:50;24.58;;;10.65;;
10092;SDS011;5085;48.092;11.484;2023-03-02T05:26:17;21.00;;;10.70;;
10092;SDS011;5085;48.092;11.484;2023-03-02T05:28:44;19.70;;;10.43;;
10092;SDS011;5085;48.092;11.484;2023-03-02T05:31:13;19.13;;;10.10;;
10092;SDS011;5085;48.092;11.484;2023-03-02T05:33:43;25.00;;;9.48;;
10092;SDS011;5085;48.092;11.484;2023-03-02T05:36:10;23.38;;;10.63;;
10092;SDS011;5085;48.092;11.484;2023-03-02T05:38:36;23.23;;;10.50;;
10092;SDS011;5085;48.092;11.484;2023-03-02T05:41:02;23.60;;;10.88;;
10092;SDS011;5085;48.092;11.484;2023-03-02T05:43:28;30.48;;;12.38;;
10092;SDS011;5085;48.092;11.484;2023-03-02T05:45:54;20.88;;;9.98;;
10092;SDS011;5085;48.092;11.484;2023-03-02T05:48:25;25.08;;;10.82;;
10092;SDS011;5085;48.092;11.484;2023-03-02T05:50:52;25.15;;;10.95;;
10092;SDS011;5085;48.092;11.484;2023-03-02T05:53:18;25.23;;;10.95;;
10092;SDS011;5085;48.092;11.484;2023-03-02T05:55:44;29.80;;;12.13;;
10092;SDS011;5085;48.092;11.484;2023-03-02T05:58:14;29.35;;;11.85;;
10092;SDS011;5085;48.092;11.484;2023-03-02T06:00:42;27.27;;;10.90;;
10092;SDS011;5085;48.092;11.484;2023-03-02T06:03:08;32.00;;;10.50;;
10092;SDS011;5085;48.092;11.484;2023-03-02T06:05:34;21.25;;;10.90;;
10092;SDS011;5085;48.092;11.484;2023-03-02T06:08:00;26.45;;;10.90;;
10092;SDS011;5085;48.092;11.484;2023-03-02T06:10:28;27.85;;;11.60;;
10092;SDS011;5085;48.092;11.484;2023-03-02T06:12:54;23.75;;;11.48;;
10092;SDS011;5085;48.092;11.484;2023-03-02T06:18:11;20.88;;;10.55;;
10092;SDS011;5085;48.092;11.484;2023-03-02T06:20:38;22.88;;;11.38;;
10092;SDS011;5085;48.092;11.484;2023-03-02T06:23:08;23.52;;;10.50;;
10092;SDS011;5085;48.092;11.484;2023-03-02T06:25:34;26.80;;;10.38;;
10092;SDS011;5085;48.092;11.484;2023-03-02T06:28:01;21.38;;;10.35;;
10092;SDS011;5085;48.092;11.484;2023-03-02T06:30:27;23.33;;;10.63;;
10092;SDS011;5085;48.092;11.484;2023-03-02T06:32:53;28.20;;;11.27;;
10092;SDS011;5085;48.092;11.484;2023-03-02T06:35:26;24.75;;;10.32;;
10092;SDS011;5085;48.092;11.484;2023-03-02T06:37:53;30.27;;;11.50;;
10092;SDS011;5085;48.092;11.484;2023-03-02T06:40:19;21.83;;;10.35;;
10092;SDS011;5085;48.092;11.484;2023-03-02T06:42:46;25.17;;;10.45;;
10092;SDS011;5085;48.092;11.484;2023-03-02T06:45:12;23.17;;;11.70;;
10092;SDS011;5085;48.092;11.484;2023-03-02T06:47:38;23.88;;;11.75;;
10092;SDS011;5085;48.092;11.484;2023-03-02T06:50:04;21.38;;;10.57;;
10092;SDS011;5085;48.092;11.484;2023-03-02T06:52:31;29.58;;;12.25;;
10092;SDS011;5085;48.092;11.484;2023-03-02T06:54:57;22.20;;;10.95;;
10092;SDS011;5085;48.092;11.484;2023-03-02T06:57:23;25.88;;;11.48;;
10092;SDS011;5085;48.092;11.484;2023-03-02T06:59:49;24.10;;;10.90;;
10092;SDS011;5085;48.092;11.484;2023-03-02T07:02:15;23.88;;;12.15;;
10092;SDS011;5085;48.092;11.484;2023-03-02T07:04:41;24.73;;;11.63;;
10092;SDS011;5085;48.092;11.484;2023-03-02T07:07:07;23.20;;;10.80;;
10092;SDS011;5085;48.092;11.484;2023-03-02T07:09:33;22.75;;;11.15;;
10092;SDS011;5085;48.092;11.484;2023-03-02T07:11:59;31.75;;;11.93;;
10092;SDS011;5085;48.092;11.484;2023-03-02T07:14:25;26.75;;;11.88;;
10092;SDS011;5085;48.092;11.484;2023-03-02T07:16:51;24.50;;;11.57;;
10092;SDS011;5085;48.092;11.484;2023-03-02T07:19:17;27.05;;;13.23;;
10092;SDS011;5085;48.092;11.484;2023-03-02T07:21:43;28.83;;;12.93;;
10092;SDS011;5085;48.092;11.484;2023-03-02T07:24:09;26.15;;;10.73;;
10092;SDS011;5085;48.092;11.484;2023-03-02T07:26:35;26.15;;;11.70;;
10092;SDS011;5085;48.092;11.484;2023-03-02T07:29:02;26.38;;;12.27;;
10092;SDS011;5085;48.092;11.484;2023-03-02T07:31:28;25.73;;;12.20;;
10092;SDS011;5085;48.092;11.484;2023-03-02T07:33:54;24.58;;;10.23;;
10092;SDS011;5085;48.092;11.484;2023-03-02T07:36:20;25.48;;;11.30;;
10092;SDS011;5085;48.092;11.484;2023-03-02T07:38:46;27.05;;;11.40;;
10092;SDS011;5085;48.092;11.484;2023-03-02T07:41:13;29.02;;;11.77;;
10092;SDS011;5085;48.092;11.484;2023-03-02T07:43:41;22.50;;;10.63;;
10092;SDS011;5085;48.092;11.484;2023-03-02T07:46:09;23.83;;;11.43;;
10092;SDS011;5085;48.092;11.484;2023-03-02T07:48:35;26.90;;;11.52;;
10092;SDS011;5085;48.092;11.484;2023-03-02T07:51:02;21.35;;;11.50;;
10092;SDS011;5085;48.092;11.484;2023-03-02T07:53:30;22.77;;;11.13;;
10092;SDS011;5085;48.092;11.484;2023-03-02T07:55:57;23.98;;;11.20;;
10092;SDS011;5085;48.092;11.484;2023-03-02T07:58:23;28.27;;;10.93;;
10092;SDS011;5085;48.092;11.484;2023-03-02T08:00:52;25.73;;;10.40;;
10092;SDS011;5085;48.092;11.484;2023-03-02T08:03:18;27.65;;;11.52;;
10092;SDS011;5085;48.092;11.484;2023-03-02T08:05:44;25.05;;;10.90;;
10092;SDS011;5085;48.092;11.484;2023-03-02T08:08:10;25.10;;;10.82;;
10092;SDS011;5085;48.092;11.484;2023-03-02T08:10:36;22.42;;;10.88;;
10092;SDS011;5085;48.092;11.484;2023-03-02T08:13:02;24.02;;;10.88;;
10092;SDS011;5085;48.092;11.484;2023-03-02T08:15:29;23.10;;;10.60;;
10092;SDS011;5085;48.092;11.484;2023-03-02T08:17:55;20.52;;;10.43;;
10092;SDS011;5085;48.092;11.484;2023-03-02T08:20:24;23.70;;;10.40;;
10092;SDS011;5085;48.092;11.484;2023-03-02T08:22:50;23.55;;;10.52;;
10092;SDS011;5085;48.092;11.484;2023-03-02T08:25:17;21.65;;;10.68;;
10092;SDS011;5085;48.092;11.484;2023-03-02T08:27:43;21.10;;;10.15;;
10092;SDS011;5085;48.092;11.484;2023-03-02T08:30:11;21.67;;;9.52;;
10092;SDS011;5085;48.092;11.484;2023-03-02T08:32:38;21.83;;;10.68;;
10092;SDS011;5085;48.092;11.484;2023-03-02T08:35:04;23.88;;;10.63;;
10092;SDS011;5085;48.092;11.484;2023-03-02T08:37:30;26.60;;;10.23;;
10092;SDS011;5085;48.092;11.484;2023-03-02T08:39:57;21.30;;;10.23;;
10092;SDS011;5085;48.092;11.484;2023-03-02T08:42:23;24.35;;;11.63;;
10092;SDS011;5085;48.092;11.484;2023-03-02T08:44:49;27.95;;;11.77;;
10092;SDS011;5085;48.092;11.484;2023-03-02T08:47:15;22.83;;;10.77;;
10092;SDS011;5085;48.092;11.484;2023-03-02T08:49:41;26.60;;;11.20;;
10092;SDS011;5085;48.092;11.484;2023-03-02T08:52:10;22.10;;;10.30;;
10092;SDS011;5085;48.092;11.484;2023-03-02T08:54:42;25.20;;;12.15;;
10092;SDS011;5085;48.092;11.484;2023-03-02T08:57:09;23.27;;;11.15;;
10092;SDS011;5085;48.092;11.484;2023-03-02T08:59:36;25.70;;;11.68;;
10092;SDS011;5085;48.092;11.484;2023-03-02T09:02:02;25.02;;;10.85;;
10092;SDS011;5085;48.092;11.484;2023-03-02T09:04:28;24.98;;;10.85;;
10092;SDS011;5085;48.092;11.484;2023-03-02T09:06:56;23.92;;;11.35;;
10092;SDS011;5085;48.092;11.484;2023-03-02T09:09:28;24.20;;;10.30;;
10092;SDS011;5085;48.092;11.484;2023-03-02T09:11:54;25.33;;;10.95;;
10092;SDS011;5085;48.092;11.484;2023-03-02T09:14:20;21.67;;;10.07;;
10092;SDS011;5085;48.092;11.484;2023-03-02T09:16:47;23.15;;;10.88;;
10092;SDS011;5085;48.092;11.484;2023-03-02T09:19:13;24.52;;;11.02;;
10092;SDS011;5085;48.092;11.484;2023-03-02T09:21:39;20.95;;;11.50;;
10092;SDS011;5085;48.092;11.484;2023-03-02T09:24:05;20.00;;;10.23;;
10092;SDS011;5085;48.092;11.484;2023-03-02T09:26:31;19.58;;;10.70;;
10092;SDS011;5085;48.092;11.484;2023-03-02T09:28:58;25.73;;;11.45;;
10092;SDS011;5085;48.092;11.484;2023-03-02T09:31:25;24.83;;;11.38;;
10092;SDS011;5085;48.092;11.484;2023-03-02T09:33:51;20.42;;;11.25;;
10092;SDS011;5085;48.092;11.484;2023-03-02T09:36:21;26.25;;;10.82;;
10092;SDS011;5085;48.092;11.484;2023-03-02T09:38:48;24.42;;;12.63;;
10092;SDS011;5085;48.092;11.484;2023-03-02T09:46:45;21.73;;;11.77;;
10092;SDS011;5085;48.092;11.484;2023-03-02T09:54:46;20.65;;;10.82;;
10092;SDS011;5085;48.092;11.484;2023-03-02T09:57:20;20.25;;;11.30;;
10092;SDS011;5085;48.092;11.484;2023-03-02T09:59:56;19.00;;;10.68;;
10092;SDS011;5085;48.092;11.484;2023-03-02T10:02:47;22.77;;;11.88;;
10092;SDS011;5085;48.092;11.484;2023-03-02T10:06:01;19.75;;;11.63;;
10092;SDS011;5085;48.092;11.484;2023-03-02T10:08:12;19.15;;;11.52;;
10092;SDS011;5085;48.092;11.484;2023-03-02T10:10:45;20.58;;;11.30;;
10092;SDS011;5085;48.092;11.484;2023-03-02T10:13:28;20.83;;;11.38;;
10092;SDS011;5085;48.092;11.484;2023-03-02T10:21:39;22.10;;;11.32;;
10092;SDS011;5085;48.092;11.484;2023-03-02T10:29:44;19.70;;;11.57;;
10092;SDS011;5085;48.092;11.484;2023-03-02T10:32:23;18.73;;;11.18;;
10092;SDS011;5085;48.092;11.484;2023-03-02T10:34:54;19.30;;;11.30;;
10092;SDS011;5085;48.092;11.484;2023-03-02T10:37:27;19.20;;;11.38;;
10092;SDS011;5085;48.092;11.484;2023-03-02T10:39:55;20.35;;;10.65;;
10092;SDS011;5085;48.092;11.484;2023-03-02T10:42:36;18.13;;;9.38;;
10092;SDS011;5085;48.092;11.484;2023-03-02T10:45:07;18.48;;;10.25;;
10092;SDS011;5085;48.092;11.484;2023-03-02T10:47:45;19.58;;;10.20;;
10092;SDS011;5085;48.092;11.484;2023-03-02T10:50:20;20.00;;;10.02;;
10092;SDS011;5085;48.092;11.484;2023-03-02T10:52:48;16.08;;;9.82;;
10092;SDS011;5085;48.092;11.484;2023-03-02T10:55:15;15.27;;;9.57;;
10092;SDS011;5085;48.092;11.484;2023-03-02T10:57:45;19.23;;;10.57;;
10092;SDS011;5085;48.092;11.484;2023-03-02T11:00:26;18.05;;;10.45;;
10092;SDS011;5085;48.092;11.484;2023-03-02T11:03:05;18.67;;;10.93;;
10092;SDS011;5085;48.092;11.484;2023-03-02T11:05:47;16.70;;;9.95;;
10092;SDS011;5085;48.092;11.484;2023-03-02T11:08:24;19.40;;;10.20;;
10092;SDS011;5085;48.092;11.484;2023-03-02T11:13:24;18.77;;;10.48;;
10092;SDS011;5085;48.092;11.484;2023-03-02T11:15:54;16.08;;;10.00;;
10092;SDS011;5085;48.092;11.484;2023-03-02T11:21:00;16.73;;;10.30;;
10092;SDS011;5085;48.092;11.484;2023-03-02T11:26:27;16.17;;;10.10;;
10092;SDS011;5085;48.092;11.484;2023-03-02T11:28:59;17.02;;;9.63;;
10092;SDS011;5085;48.092;11.484;2023-03-02T11:31:37;16.13;;;10.02;;
10092;SDS011;5085;48.092;11.484;2023-03-02T11:39:42;18.60;;;9.70;;
10092;SDS011;5085;48.092;11.484;2023-03-02T11:45:03;17.25;;;9.50;;
10092;SDS011;5085;48.092;11.484;2023-03-02T11:47:44;21.85;;;10.27;;
10092;SDS011;5085;48.092;11.484;2023-03-02T11:50:17;15.43;;;9.38;;
10092;SDS011;5085;48.092;11.484;2023-03-02T11:52:48;18.45;;;9.77;;
10092;SDS011;5085;48.092;11.484;2023-03-02T11:55:20;15.68;;;9.27;;
10092;SDS011;5085;48.092;11.484;2023-03-02T11:57:49;15.00;;;8.80;;
10092;SDS011;5085;48.092;11.484;2023-03-02T12:00:32;16.05;;;8.98;;
10092;SDS011;5085;48.092;11.484;2023-03-02T12:03:02;15.13;;;9.15;;
10092;SDS011;5085;48.092;11.484;2023-03-02T12:05:44;13.07;;;9.15;;
10092;SDS011;5085;48.092;11.484;2023-03-02T12:10:59;16.30;;;8.40;;
10092;SDS011;5085;48.092;11.484;2023-03-02T12:13:29;16.92;;;8.80;;
10092;SDS011;5085;48.092;11.484;2023-03-02T12:16:15;12.75;;;8.40;;
10092;SDS011;5085;48.092;11.484;2023-03-02T12:18:48;14.52;;;8.45;;
10092;SDS011;5085;48.092;11.484;2023-03-02T12:26:23;13.95;;;7.95;;
10092;SDS011;5085;48.092;11.484;2023-03-02T12:34:35;13.90;;;7.80;;
10092;SDS011;5085;48.092;11.484;2023-03-02T12:39:58;11.50;;;8.02;;
10092;SDS011;5085;48.092;11.484;2023-03-02T12:45:50;14.52;;;8.88;;
10092;SDS011;5085;48.092;11.484;2023-03-02T12:48:29;14.98;;;8.60;;
10092;SDS011;5085;48.092;11.484;2023-03-02T12:51:06;13.02;;;7.60;;
10092;SDS011;5085;48.092;11.484;2023-03-02T12:53:41;12.30;;;8.13;;
10092;SDS011;5085;48.092;11.484;2023-03-02T12:56:07;16.63;;;8.50;;
10092;SDS011;5085;48.092;11.484;2023-03-02T12:58:34;11.55;;;7.93;;
10092;SDS011;5085;48.092;11.484;2023-03-02T13:01:00;15.95;;;8.88;;
10092;SDS011;5085;48.092;11.484;2023-03-02T13:03:28;13.60;;;8.90;;
10092;SDS011;5085;48.092;11.484;2023-03-02T13:06:12;11.95;;;8.32;;
10092;SDS011;5085;48.092;11.484;2023-03-02T13:08:44;13.80;;;7.85;;
10092;SDS011;5085;48.092;11.484;2023-03-02T13:11:12;14.30;;;8.27;;
10092;SDS011;5085;48.092;11.484;2023-03-02T13:13:45;11.98;;;8.35;;
10092;SDS011;5085;48.092;11.484;2023-03-02T13:18:57;15.07;;;7.45;;
10092;SDS011;5085;48.092;11.484;2023-03-02T13:21:33;14.30;;;7.47;;
10092;SDS011;5085;48.092;11.484;2023-03-02T13:24:02;10.68;;;7.18;;
10092;SDS011;5085;48.092;11.484;2023-03-02T13:26:52;12.95;;;7.78;;
10092;SDS011;5085;48.092;11.484;2023-03-02T13:29:26;15.32;;;7.72;;
10092;SDS011;5085;48.092;11.484;2023-03-02T13:31:57;17.92;;;9.90;;
10092;SDS011;5085;48.092;11.484;2023-03-02T13:34:43;15.25;;;9.63;;
10092;SDS011;5085;48.092;11.484;2023-03-02T13:37:17;15.35;;;10.38;;
10092;SDS011;5085;48.092;11.484;2023-03-02T13:39:56;15.45;;;10.63;;
10092;SDS011;5085;48.092;11.484;2023-03-02T13:42:25;18.05;;;10.68;;
10092;SDS011;5085;48.092;11.484;2023-03-02T13:44:53;16.25;;;10.40;;
10092;SDS011;5085;48.092;11.484;2023-03-02T13:47:23;17.42;;;10.63;;
10092;SDS011;5085;48.092;11.484;2023-03-02T13:52:25;20.55;;;10.40;;
10092;SDS011;5085;48.092;11.484;2023-03-02T13:54:54;15.93;;;10.35;;
10092;SDS011;5085;48.092;11.484;2023-03-02T13:57:23;18.40;;;11.35;;
10092;SDS011;5085;48.092;11.484;2023-03-02T13:59:53;20.05;;;11.85;;
10092;SDS011;5085;48.092;11.484;2023-03-02T14:04:48;16.45;;;10.57;;
10092;SDS011;5085;48.092;11.484;2023-03-02T14:07:14;18.92;;;12.02;;
10092;SDS011;5085;48.092;11.484;2023-03-02T14:09:42;19.85;;;11.68;;
10092;SDS011;5085;48.092;11.484;2023-03-02T14:12:09;17.70;;;11.20;;
10092;SDS011;5085;48.092;11.484;2023-03-02T14:14:59;23.58;;;12.85;;
10092;SDS011;5085;48.092;11.484;2023-03-02T14:17:27;17.92;;;11.55;;
10092;SDS011;5085;48.092;11.484;2023-03-02T14:19:53;17.92;;;11.00;;
10092;SDS011;5085;48.092;11.484;2023-03-02T14:22:21;20.70;;;12.00;;
10092;SDS011;5085;48.092;11.484;2023-03-02T14:24:48;20.48;;;11.93;;
10092;SDS011;5085;48.092;11.484;2023-03-02T14:27:14;19.35;;;11.75;;
10092;SDS011;5085;48.092;11.484;2023-03-02T14:29:42;22.73;;;11.52;;
10092;SDS011;5085;48.092;11.484;2023-03-02T14:32:10;20.58;;;11.30;;
10092;SDS011;5085;48.092;11.484;2023-03-02T14:34:38;21.23;;;12.05;;
10092;SDS011;5085;48.092;11.484;2023-03-02T14:37:05;20.70;;;12.00;;
10092;SDS011;5085;48.092;11.484;2023-03-02T14:39:38;22.80;;;11.45;;
10092;SDS011;5085;48.092;11.484;2023-03-02T14:42:12;19.73;;;11.35;;
10092;SDS011;5085;48.092;11.484;2023-03-02T14:44:48;25.55;;;11.93;;
10092;SDS011;5085;48.092;11.484;2023-03-02T14:47:15;21.98;;;11.35;;
10092;SDS011;5085;48.092;11.484;2023-03-02T14:52:31;20.40;;;11.07;;
10092;SDS011;5085;48.092;11.484;2023-03-02T14:55:02;24.13;;;11.98;;
10092;SDS011;5085;48.092;11.484;2023-03-02T14:57:32;21.30;;;11.02;;
10092;SDS011;5085;48.092;11.484;2023-03-02T15:00:03;27.00;;;11.63;;
10092;SDS011;5085;48.092;11.484;2023-03-02T15:02:31;23.75;;;11.80;;
10092;SDS011;5085;48.092;11.484;2023-03-02T15:04:57;28.38;;;11.48;;
10092;SDS011;5085;48.092;11.484;2023-03-02T15:07:24;22.17;;;10.48;;
10092;SDS011;5085;48.092;11.484;2023-03-02T15:09:52;24.98;;;11.13;;
10092;SDS011;5085;48.092;11.484;2023-03-02T15:12:19;24.17;;;11.15;;
10092;SDS011;5085;48.092;11.484;2023-03-02T15:14:45;25.23;;;11.63;;
10092;SDS011;5085;48.092;11.484;2023-03-02T15:17:11;23.60;;;10.63;;
10092;SDS011;5085;48.092;11.484;2023-03-02T15:19:37;23.95;;;10.55;;
10092;SDS011;5085;48.092;11.484;2023-03-02T15:22:03;22.90;;;10.90;;
10092;SDS011;5085;48.092;11.484;2023-03-02T15:24:29;24.23;;;11.43;;
10092;SDS011;5085;48.092;11.484;2023-03-02T15:26:55;23.90;;;11.25;;
10092;SDS011;5085;48.092;11.484;2023-03-02T15:29:21;26.30;;;10.80;;
10092;SDS011;5085;48.092;11.484;2023-03-02T15:31:47;26.08;;;11.20;;
10092;SDS011;5085;48.092;11.484;2023-03-02T15:34:13;24.60;;;10.85;;
10092;SDS011;5085;48.092;11.484;2023-03-02T15:36:39;25.23;;;10.63;;
10092;SDS011;5085;48.092;11.484;2023-03-02T15:39:05;26.45;;;10.88;;
10092;SDS011;5085;48.092;11.484;2023-03-02T15:41:34;24.73;;;10.57;;
10092;SDS011;5085;48.092;11.484;2023-03-02T15:44:00;24.05;;;9.85;;
10092;SDS011;5085;48.092;11.484;2023-03-02T15:46:26;24.00;;;11.27;;
10092;SDS011;5085;48.092;11.484;2023-03-02T15:48:52;25.50;;;11.43;;
10092;SDS011;5085;48.092;11.484;2023-03-02T15:51:18;27.70;;;11.60;;
10092;SDS011;5085;48.092;11.484;2023-03-02T15:53:45;26.33;;;11.15;;
10092;SDS011;5085;48.092;11.484;2023-03-02T15:56:12;23.63;;;10.35;;
10092;SDS011;5085;48.092;11.484;2023-03-02T15:58:47;21.90;;;10.07;;